Time;durP1;ratioP1;P1;durP2;ratioP2;P2;SDS_P1;SDS_P2;PMS_P1;PMS_P2;Temp;Humidity;BMP_temperature;BMP_pressure;BME280_temperature;BME280_humidity;BME280_pressure;Samples;Min_cycle;Max_cycle;Signal;HPM_P1;HPM_P2
2021/12/27 00:00:19;;;;;;;21.40;14.13;;;7.90;88.00;;;;;;5035705;28;20076;-80
2021/12/27 00:02:53;;;;;;;26.90;15.57;;;7.90;88.00;;;;;;5032527;28;20506;-80
2021/12/27 00:05:21;;;;;;;27.35;17.75;;;7.90;88.00;;;;;;5035515;28;20429;-80
2021/12/27 00:07:50;;;;;;;22.52;15.57;;;7.90;88.10;;;;;;5035800;28;20046;-80
2021/12/27 00:10:19;;;;;;;20.52;14.45;;;7.90;88.10;;;;;;5035455;28;20052;-80
2021/12/27 00:12:47;;;;;;;34.97;18.42;;;7.90;88.10;;;;;;5035411;28;20052;-80
2021/12/27 00:15:15;;;;;;;33.15;17.20;;;7.90;88.10;;;;;;5034927;28;20067;-80
2021/12/27 00:17:43;;;;;;;31.20;17.15;;;7.90;88.10;;;;;;5034497;28;20049;-80
2021/12/27 00:20:16;;;;;;;24.08;15.05;;;7.90;88.10;;;;;;5035384;28;20041;-80
2021/12/27 00:22:45;;;;;;;22.33;15.43;;;7.90;88.10;;;;;;5035275;28;20050;-80
2021/12/27 00:25:13;;;;;;;24.15;15.55;;;7.90;88.10;;;;;;5034597;28;20513;-80
2021/12/27 00:27:41;;;;;;;34.45;16.67;;;7.90;88.10;;;;;;5035324;28;20056;-80
2021/12/27 00:30:09;;;;;;;47.10;17.48;;;7.90;88.10;;;;;;5034397;28;20049;-80
2021/12/27 00:32:37;;;;;;;26.60;17.40;;;7.90;88.10;;;;;;5034852;28;20054;-80
2021/12/27 00:35:05;;;;;;;30.25;16.83;;;8.00;88.10;;;;;;5035124;28;20494;-80
2021/12/27 00:37:32;;;;;;;33.60;17.48;;;7.90;88.10;;;;;;5034956;28;20047;-80
2021/12/27 00:39:59;;;;;;;25.05;16.63;;;7.90;88.10;;;;;;5034422;28;20046;-80
2021/12/27 00:42:26;;;;;;;27.02;15.88;;;7.90;88.10;;;;;;5034936;28;20037;-80
2021/12/27 00:44:54;;;;;;;22.02;15.07;;;8.00;88.10;;;;;;5034104;28;20140;-80
2021/12/27 00:47:22;;;;;;;22.88;14.30;;;7.90;88.10;;;;;;5034519;28;20045;-79
2021/12/27 00:49:49;;;;;;;25.08;13.68;;;7.90;88.00;;;;;;5034964;28;20049;-80
2021/12/27 00:52:16;;;;;;;22.45;13.10;;;7.90;88.10;;;;;;5034665;28;20045;-80
2021/12/27 00:54:43;;;;;;;19.55;13.05;;;7.90;88.10;;;;;;5034374;28;20064;-80
2021/12/27 00:57:10;;;;;;;19.42;13.57;;;7.90;88.10;;;;;;5033941;28;20536;-79
2021/12/27 00:59:37;;;;;;;25.55;14.10;;;7.90;88.00;;;;;;5035057;28;20056;-80
2021/12/27 01:02:04;;;;;;;23.90;14.13;;;7.90;88.10;;;;;;5033256;28;20042;-80
2021/12/27 01:04:31;;;;;;;19.75;13.27;;;7.90;88.10;;;;;;5034261;28;20076;-79
2021/12/27 01:06:58;;;;;;;20.38;13.63;;;7.90;88.10;;;;;;5034502;28;20510;-79
2021/12/27 01:10:26;;;;;;;23.85;14.07;;;7.90;88.10;;;;;;5033967;28;20048;-80
2021/12/27 01:17:48;;;;;;;22.85;13.15;;;7.90;88.10;;;;;;5009375;28;20050;-80
2021/12/27 01:20:21;;;;;;;22.90;12.77;;;7.90;88.10;;;;;;5012314;28;20048;-80
2021/12/27 01:22:49;;;;;;;23.17;13.77;;;7.90;88.10;;;;;;5012210;28;20046;-79
2021/12/27 01:25:16;;;;;;;18.63;12.75;;;7.90;88.10;;;;;;5011897;28;20068;-79
2021/12/27 01:27:44;;;;;;;20.38;13.25;;;7.90;88.10;;;;;;5012257;28;20046;-80
2021/12/27 01:30:19;;;;;;;18.80;12.07;;;7.90;88.10;;;;;;5011370;28;20053;-79
2021/12/27 01:32:54;;;;;;;21.10;12.30;;;7.90;88.10;;;;;;5012777;28;20054;-80
2021/12/27 01:35:22;;;;;;;17.92;12.10;;;7.90;88.10;;;;;;5011949;28;20553;-80
2021/12/27 01:37:51;;;;;;;19.45;12.98;;;7.90;88.10;;;;;;5011567;28;20053;-79
2021/12/27 01:40:22;;;;;;;19.30;12.95;;;7.90;88.10;;;;;;5011684;28;20065;-80
2021/12/27 01:43:10;;;;;;;19.73;11.90;;;7.90;88.10;;;;;;5011727;28;20423;-80
2021/12/27 01:45:43;;;;;;;17.55;12.25;;;7.90;88.10;;;;;;4997060;28;20041;-80
2021/12/27 01:48:13;;;;;;;17.77;12.10;;;7.90;88.10;;;;;;5012116;28;20050;-81
2021/12/27 01:50:42;;;;;;;18.23;12.52;;;7.90;88.10;;;;;;5034725;28;20046;-80
2021/12/27 01:53:10;;;;;;;17.67;12.52;;;7.90;88.10;;;;;;5033396;28;20064;-81
2021/12/27 01:55:38;;;;;;;19.02;12.52;;;7.90;88.10;;;;;;5033796;28;20383;-80
2021/12/27 01:58:05;;;;;;;19.15;12.70;;;7.90;88.10;;;;;;5033950;28;20071;-80
2021/12/27 02:00:36;;;;;;;15.98;11.82;;;7.90;88.10;;;;;;5018264;28;20041;-80
2021/12/27 02:03:04;;;;;;;16.05;10.95;;;7.90;88.10;;;;;;5029122;28;20049;-80
2021/12/27 02:05:32;;;;;;;18.83;12.30;;;7.90;88.10;;;;;;5035072;28;20092;-80
2021/12/27 02:07:59;;;;;;;17.75;12.40;;;7.90;88.10;;;;;;5033280;28;20051;-80
2021/12/27 02:10:27;;;;;;;16.25;11.50;;;7.90;88.10;;;;;;5033533;28;22010;-80
2021/12/27 02:12:54;;;;;;;16.63;11.25;;;7.90;88.10;;;;;;5033347;28;20049;-80
2021/12/27 02:15:21;;;;;;;16.48;11.52;;;7.90;88.10;;;;;;5033629;28;20050;-80
2021/12/27 02:17:49;;;;;;;16.55;11.43;;;7.90;88.10;;;;;;5032749;28;20056;-80
2021/12/27 02:20:21;;;;;;;18.27;11.85;;;7.90;88.10;;;;;;5033524;28;20063;-80
2021/12/27 02:22:51;;;;;;;17.45;12.23;;;7.90;88.10;;;;;;5033003;28;20045;-80
2021/12/27 02:25:18;;;;;;;15.90;11.90;;;7.90;88.00;;;;;;5033469;28;20119;-80
2021/12/27 02:27:46;;;;;;;17.88;11.60;;;7.90;88.00;;;;;;5033476;28;20049;-80
2021/12/27 02:30:17;;;;;;;15.68;10.77;;;7.90;88.00;;;;;;5032793;28;20057;-80
2021/12/27 02:32:57;;;;;;;15.90;11.45;;;7.90;88.00;;;;;;5030283;28;20060;-80
2021/12/27 02:35:30;;;;;;;15.75;11.13;;;7.90;88.00;;;;;;5032856;28;20065;-80
2021/12/27 02:37:59;;;;;;;16.98;11.18;;;7.90;88.00;;;;;;5033161;28;20048;-80
2021/12/27 02:40:28;;;;;;;17.58;11.65;;;7.90;88.10;;;;;;5033308;28;20063;-79
2021/12/27 02:43:08;;;;;;;16.80;11.70;;;7.90;88.10;;;;;;5033112;28;20422;-80
2021/12/27 02:45:42;;;;;;;22.30;13.25;;;7.90;88.00;;;;;;5017986;28;20045;-80
2021/12/27 02:48:10;;;;;;;19.70;12.43;;;7.90;88.00;;;;;;5032350;28;20046;-81
2021/12/27 02:50:40;;;;;;;21.30;12.52;;;7.90;88.00;;;;;;5033239;28;20509;-80
2021/12/27 02:53:08;;;;;;;19.00;11.85;;;7.90;88.00;;;;;;5032895;28;20060;-80
2021/12/27 02:55:36;;;;;;;15.82;11.77;;;7.90;88.00;;;;;;5032897;28;20425;-79
2021/12/27 02:58:04;;;;;;;19.00;11.75;;;7.90;88.00;;;;;;5033104;28;20042;-80
2021/12/27 03:01:01;;;;;;;18.48;11.80;;;7.90;88.00;;;;;;5019004;28;20518;-80
2021/12/27 03:03:28;;;;;;;19.30;12.63;;;7.90;88.00;;;;;;5033127;28;20536;-80
2021/12/27 03:05:56;;;;;;;21.38;12.43;;;7.90;88.00;;;;;;5031726;28;20409;-80
2021/12/27 03:08:26;;;;;;;23.45;13.77;;;7.90;88.00;;;;;;5032962;28;20046;-80
2021/12/27 03:10:56;;;;;;;20.05;13.40;;;7.90;88.00;;;;;;5032880;28;20055;-80
2021/12/27 03:13:29;;;;;;;19.88;13.68;;;7.90;88.00;;;;;;5032628;28;20045;-80
2021/12/27 03:16:02;;;;;;;23.90;15.50;;;7.90;88.00;;;;;;5032941;28;20056;-80
2021/12/27 03:18:32;;;;;;;22.02;13.60;;;7.90;88.00;;;;;;5032911;28;20083;-80
2021/12/27 03:21:00;;;;;;;24.10;14.02;;;7.90;87.90;;;;;;5027479;28;20054;-79
2021/12/27 03:23:27;;;;;;;25.80;14.90;;;7.90;88.00;;;;;;5032747;28;20064;-79
2021/12/27 03:25:54;;;;;;;29.70;17.00;;;7.80;87.90;;;;;;5035656;28;20041;-80
2021/12/27 03:28:22;;;;;;;26.02;14.77;;;7.80;87.90;;;;;;5036727;28;20045;-80
2021/12/27 03:30:49;;;;;;;30.48;16.35;;;7.90;87.90;;;;;;5036691;28;20437;-80
2021/12/27 03:33:20;;;;;;;36.88;18.25;;;7.90;88.00;;;;;;5036395;28;20592;-80
2021/12/27 03:36:00;;;;;;;29.35;16.42;;;7.90;87.90;;;;;;5034180;28;20406;-81
2021/12/27 03:38:52;;;;;;;32.45;16.33;;;7.80;88.00;;;;;;5036387;28;20445;-80
2021/12/27 03:41:23;;;;;;;27.42;15.75;;;7.90;88.00;;;;;;5036297;28;20080;-80
2021/12/27 03:43:50;;;;;;;39.85;20.65;;;7.80;88.00;;;;;;5036306;28;20049;-80
2021/12/27 03:46:17;;;;;;;27.98;15.60;;;7.90;88.00;;;;;;5036393;28;20041;-80
2021/12/27 03:48:44;;;;;;;29.33;16.50;;;7.80;88.00;;;;;;5036065;28;20111;-80
2021/12/27 03:51:11;;;;;;;28.30;16.77;;;7.80;88.00;;;;;;5035325;28;20391;-80
2021/12/27 03:53:40;;;;;;;27.70;16.83;;;7.90;88.00;;;;;;5034784;28;20053;-80
2021/12/27 03:56:08;;;;;;;33.17;16.63;;;7.90;88.00;;;;;;5036088;28;20048;-80
2021/12/27 03:58:54;;;;;;;37.78;20.23;;;7.90;88.00;;;;;;5036066;28;20080;-80
2021/12/27 04:01:23;;;;;;;58.30;25.15;;;7.90;88.00;;;;;;5035966;28;20456;-80
2021/12/27 04:03:53;;;;;;;49.47;23.08;;;7.90;88.10;;;;;;5035644;28;20056;-80
2021/12/27 04:06:22;;;;;;;77.45;30.42;;;7.90;88.10;;;;;;5036033;28;20053;-80
2021/12/27 04:08:49;;;;;;;52.22;22.85;;;7.90;88.10;;;;;;5035050;28;20050;-80
2021/12/27 04:11:16;;;;;;;52.13;20.83;;;7.90;88.10;;;;;;5035755;28;20049;-81
2021/12/27 04:13:43;;;;;;;37.70;19.10;;;7.90;88.10;;;;;;5035608;28;20049;-80
2021/12/27 04:16:11;;;;;;;36.92;18.90;;;7.90;88.10;;;;;;5035816;28;20041;-80
2021/12/27 04:18:38;;;;;;;39.78;19.35;;;7.90;88.10;;;;;;5035479;28;20115;-80
2021/12/27 04:21:05;;;;;;;83.15;30.27;;;7.90;88.10;;;;;;5034657;28;20080;-80
2021/12/27 04:23:33;;;;;;;56.53;25.10;;;7.90;88.10;;;;;;5035249;28;20052;-80
2021/12/27 04:26:00;;;;;;;39.45;20.08;;;7.90;88.10;;;;;;5035586;28;20054;-80
2021/12/27 04:28:27;;;;;;;64.40;26.33;;;7.90;88.10;;;;;;5035441;28;20528;-79
2021/12/27 04:30:54;;;;;;;40.28;20.30;;;7.90;88.10;;;;;;5035371;28;20045;-80
2021/12/27 04:33:21;;;;;;;34.45;19.05;;;7.90;88.10;;;;;;5035041;28;20533;-79
2021/12/27 04:35:49;;;;;;;42.53;21.75;;;7.90;88.10;;;;;;5034567;28;20056;-80
2021/12/27 04:38:16;;;;;;;42.13;20.77;;;8.00;88.10;;;;;;5035336;28;20049;-80
2021/12/27 04:40:47;;;;;;;52.38;25.25;;;8.00;88.10;;;;;;5035216;28;20049;-80
2021/12/27 04:43:20;;;;;;;44.85;22.02;;;8.00;88.10;;;;;;5035145;28;20403;-79
2021/12/27 04:45:48;;;;;;;52.45;23.17;;;8.00;88.10;;;;;;5035242;28;20045;-80
2021/12/27 04:48:18;;;;;;;40.83;20.80;;;8.00;88.10;;;;;;5035027;28;20046;-80
2021/12/27 04:50:45;;;;;;;40.53;21.20;;;8.00;88.10;;;;;;5032456;28;20057;-80
2021/12/27 04:53:13;;;;;;;62.15;26.88;;;8.00;88.10;;;;;;5034999;28;20053;-80
2021/12/27 04:55:40;;;;;;;56.58;25.05;;;8.00;88.10;;;;;;5034981;28;20050;-80
2021/12/27 04:58:09;;;;;;;69.95;28.48;;;8.00;88.10;;;;;;5035022;28;20485;-80
2021/12/27 05:00:37;;;;;;;39.05;19.98;;;8.00;88.10;;;;;;5034729;28;20481;-80
2021/12/27 05:03:06;;;;;;;57.25;24.65;;;8.00;88.10;;;;;;5033901;28;20050;-80
2021/12/27 05:05:33;;;;;;;60.50;26.10;;;8.00;88.10;;;;;;5034381;28;20413;-80
2021/12/27 05:08:01;;;;;;;51.85;23.33;;;8.00;88.10;;;;;;5034775;28;20045;-81
2021/12/27 05:10:30;;;;;;;70.50;27.20;;;8.00;88.10;;;;;;5034702;28;20041;-80
2021/12/27 05:12:57;;;;;;;92.10;31.00;;;8.10;88.10;;;;;;5034855;28;20050;-80
2021/12/27 05:15:24;;;;;;;58.13;24.80;;;8.10;88.10;;;;;;5034395;28;20067;-80
2021/12/27 05:17:51;;;;;;;58.00;24.60;;;8.00;88.10;;;;;;5033852;28;20053;-79
2021/12/27 05:20:18;;;;;;;53.05;24.23;;;8.10;88.10;;;;;;5034540;28;20063;-80
2021/12/27 05:22:45;;;;;;;55.55;25.38;;;8.10;88.10;;;;;;5034501;28;20052;-80
2021/12/27 05:25:16;;;;;;;55.58;24.15;;;8.10;88.10;;;;;;5034450;28;20052;-80
2021/12/27 05:27:46;;;;;;;59.80;25.90;;;8.00;88.10;;;;;;5034478;28;20128;-80
2021/12/27 05:30:18;;;;;;;58.08;26.52;;;8.10;88.10;;;;;;5034207;28;20099;-80
2021/12/27 05:32:46;;;;;;;65.03;26.42;;;8.10;88.10;;;;;;5031523;28;20057;-80
2021/12/27 05:35:14;;;;;;;57.35;25.45;;;8.10;88.10;;;;;;5034138;28;20045;-80
2021/12/27 05:37:43;;;;;;;74.75;27.30;;;8.10;88.10;;;;;;5034164;28;20057;-80
2021/12/27 05:40:14;;;;;;;53.38;23.17;;;8.10;88.10;;;;;;5034198;28;20053;-80
2021/12/27 05:42:42;;;;;;;51.88;24.60;;;8.10;88.10;;;;;;5034084;28;20048;-80
2021/12/27 05:45:09;;;;;;;57.10;24.88;;;8.10;88.10;;;;;;5032979;28;20055;-80
2021/12/27 05:47:37;;;;;;;60.00;26.38;;;8.10;88.10;;;;;;5033977;28;20045;-80
2021/12/27 05:50:05;;;;;;;63.60;26.88;;;8.10;88.10;;;;;;5033686;28;20513;-80
2021/12/27 05:52:32;;;;;;;62.42;25.92;;;8.10;88.10;;;;;;5033841;28;20464;-80
2021/12/27 05:54:59;;;;;;;91.63;25.33;;;8.10;88.10;;;;;;5033917;28;20124;-80
2021/12/27 05:57:26;;;;;;;72.40;24.42;;;8.10;88.10;;;;;;5034031;28;20166;-80
2021/12/27 05:59:53;;;;;;;65.75;23.50;;;8.10;88.10;;;;;;5032766;28;20056;-80
2021/12/27 06:02:20;;;;;;;63.95;24.55;;;8.10;88.10;;;;;;5033713;28;20055;-79
2021/12/27 06:04:48;;;;;;;61.10;25.15;;;8.10;88.10;;;;;;5033446;28;20049;-80
2021/12/27 06:07:15;;;;;;;66.25;25.10;;;8.10;88.10;;;;;;5033665;28;20042;-79
2021/12/27 06:09:43;;;;;;;57.13;25.15;;;8.10;88.10;;;;;;5033626;28;20052;-79
2021/12/27 06:12:10;;;;;;;50.22;22.55;;;8.20;88.10;;;;;;5032757;28;20403;-80
2021/12/27 06:14:38;;;;;;;55.58;24.70;;;8.20;88.10;;;;;;5033570;28;20053;-81
2021/12/27 06:17:05;;;;;;;57.17;22.10;;;8.10;88.10;;;;;;5033620;28;20047;-80
2021/12/27 06:19:33;;;;;;;56.10;23.15;;;8.20;88.10;;;;;;5033498;28;20049;-80
2021/12/27 06:22:01;;;;;;;57.78;22.55;;;8.20;88.10;;;;;;5033330;28;20425;-80
2021/12/27 06:24:28;;;;;;;58.00;23.85;;;8.20;88.20;;;;;;5033582;28;20053;-80
2021/12/27 06:26:55;;;;;;;55.67;23.52;;;8.20;88.20;;;;;;5032504;28;20508;-80
2021/12/27 06:29:22;;;;;;;56.33;23.33;;;8.20;88.20;;;;;;5032959;28;20049;-80
2021/12/27 06:31:49;;;;;;;56.45;23.30;;;8.20;88.10;;;;;;5033281;28;20045;-80
2021/12/27 06:34:17;;;;;;;53.58;22.45;;;8.20;88.20;;;;;;5033090;28;20052;-80
2021/12/27 06:36:45;;;;;;;52.90;22.48;;;8.20;88.20;;;;;;5033397;28;20563;-80
2021/12/27 06:39:12;;;;;;;49.95;24.42;;;8.30;88.20;;;;;;5032426;28;20052;-80
2021/12/27 06:41:39;;;;;;;54.67;22.60;;;8.30;88.20;;;;;;5032854;28;20053;-80
2021/12/27 06:44:06;;;;;;;46.20;21.58;;;8.30;88.20;;;;;;5032688;28;20041;-80
2021/12/27 06:46:33;;;;;;;48.90;22.13;;;8.30;88.20;;;;;;5033039;28;20453;-80
2021/12/27 06:49:00;;;;;;;51.28;22.15;;;8.30;88.20;;;;;;5033252;28;20038;-80
2021/12/27 06:51:28;;;;;;;53.40;22.63;;;8.30;88.20;;;;;;5033162;28;20049;-79
2021/12/27 06:53:55;;;;;;;50.10;22.20;;;8.40;88.20;;;;;;5032221;28;20486;-80
2021/12/27 06:56:22;;;;;;;58.95;23.23;;;8.30;88.20;;;;;;5032647;28;20053;-80
2021/12/27 06:58:49;;;;;;;52.85;21.13;;;8.40;88.30;;;;;;5032969;28;20514;-80
2021/12/27 07:01:16;;;;;;;43.70;19.83;;;8.40;88.30;;;;;;5036560;28;20049;-80
2021/12/27 07:03:43;;;;;;;47.72;21.08;;;8.40;88.30;;;;;;5037135;28;20060;-80
2021/12/27 07:06:10;;;;;;;50.88;22.25;;;8.40;88.30;;;;;;5036133;28;20520;-80
2021/12/27 07:08:37;;;;;;;51.65;22.88;;;8.40;88.30;;;;;;5037435;28;20055;-80
2021/12/27 07:11:04;;;;;;;51.83;21.88;;;8.40;88.30;;;;;;5036512;28;20088;-80
2021/12/27 07:13:31;;;;;;;43.85;21.33;;;8.40;88.30;;;;;;5036881;28;20433;-80
2021/12/27 07:15:58;;;;;;;57.38;24.45;;;8.50;88.30;;;;;;5036836;28;20046;-80
2021/12/27 07:18:25;;;;;;;51.30;23.35;;;8.50;88.30;;;;;;5036976;28;20095;-80
2021/12/27 07:20:53;;;;;;;59.50;24.08;;;8.50;88.30;;;;;;5035988;28;20067;-80
2021/12/27 07:23:20;;;;;;;48.10;22.02;;;8.50;88.30;;;;;;5038255;28;20048;-80
2021/12/27 07:25:48;;;;;;;54.25;23.90;;;8.50;88.30;;;;;;5036395;28;20037;-80
2021/12/27 07:28:16;;;;;;;68.57;25.25;;;8.50;88.30;;;;;;5036642;28;20045;-79
2021/12/27 07:30:43;;;;;;;55.45;22.88;;;8.50;88.40;;;;;;5036732;28;20063;-80
2021/12/27 07:33:10;;;;;;;61.75;25.65;;;8.50;88.40;;;;;;5035733;28;20490;-80
2021/12/27 07:35:37;;;;;;;72.03;27.55;;;8.60;88.40;;;;;;5036791;28;20494;-80
2021/12/27 07:38:05;;;;;;;60.05;24.73;;;8.60;88.40;;;;;;5036468;28;20046;-80
2021/12/27 07:40:32;;;;;;;55.28;24.02;;;8.60;88.40;;;;;;5035987;28;20045;-80
2021/12/27 07:43:00;;;;;;;57.78;24.15;;;8.70;88.40;;;;;;5036617;28;20053;-80
2021/12/27 07:45:27;;;;;;;57.40;25.17;;;8.60;88.40;;;;;;5036337;28;20037;-80
2021/12/27 07:47:56;;;;;;;52.55;23.75;;;8.70;88.40;;;;;;5035500;28;20055;-80
2021/12/27 07:50:24;;;;;;;51.80;23.73;;;8.70;88.50;;;;;;5036185;28;20096;-79
2021/12/27 07:52:52;;;;;;;45.50;22.67;;;8.70;88.50;;;;;;5036223;28;20041;-79
2021/12/27 07:55:19;;;;;;;50.40;22.40;;;8.80;88.50;;;;;;5035765;28;20045;-80
2021/12/27 07:57:46;;;;;;;46.60;22.25;;;8.80;88.50;;;;;;5036179;28;20045;-80
2021/12/27 08:00:14;;;;;;;43.13;20.77;;;8.80;88.50;;;;;;5035690;28;20049;-80
2021/12/27 08:02:41;;;;;;;39.42;20.35;;;8.80;88.50;;;;;;5035498;28;20048;-80
2021/12/27 08:05:09;;;;;;;42.15;20.13;;;8.90;88.50;;;;;;5035821;28;20049;-80
2021/12/27 08:07:36;;;;;;;43.55;20.95;;;8.90;88.50;;;;;;5035856;28;20495;-80
2021/12/27 08:10:05;;;;;;;44.13;21.13;;;8.90;88.60;;;;;;5035183;28;20413;-80
2021/12/27 08:12:32;;;;;;;41.72;21.23;;;8.90;88.60;;;;;;5020063;28;20045;-79
2021/12/27 08:14:59;;;;;;;42.05;19.92;;;8.90;88.60;;;;;;5034953;28;20052;-79
2021/12/27 08:17:26;;;;;;;45.50;20.65;;;8.90;88.50;;;;;;5035744;28;20060;-82
2021/12/27 08:19:53;;;;;;;41.35;20.17;;;8.90;88.60;;;;;;5035736;28;20077;-79
2021/12/27 08:22:20;;;;;;;41.83;21.05;;;8.90;88.50;;;;;;5035610;28;20491;-80
2021/12/27 08:24:49;;;;;;;39.85;19.02;;;8.90;88.50;;;;;;5035213;28;20045;-81
2021/12/27 08:27:17;;;;;;;39.65;20.73;;;9.00;88.50;;;;;;5035388;28;20144;-80
2021/12/27 08:29:44;;;;;;;34.38;19.10;;;9.00;88.50;;;;;;5032649;28;20049;-80
2021/12/27 08:32:11;;;;;;;49.90;20.70;;;9.00;88.50;;;;;;5032470;28;20053;-80
2021/12/27 08:34:38;;;;;;;38.67;20.08;;;9.00;88.50;;;;;;5034227;28;20506;-80
2021/12/27 08:37:06;;;;;;;38.45;19.73;;;9.00;88.50;;;;;;5036758;28;20048;-80
2021/12/27 08:39:34;;;;;;;40.47;19.38;;;9.00;88.50;;;;;;5023890;28;20063;-80
2021/12/27 08:42:03;;;;;;;39.25;19.85;;;9.00;88.50;;;;;;5029978;28;20060;-80
2021/12/27 08:44:30;;;;;;;38.65;19.45;;;9.00;88.50;;;;;;5036409;28;20421;-80
2021/12/27 08:46:57;;;;;;;35.42;18.92;;;9.00;88.50;;;;;;5035007;28;20051;-79
2021/12/27 08:49:24;;;;;;;37.03;19.40;;;9.10;88.60;;;;;;5034542;28;20052;-79
2021/12/27 08:51:51;;;;;;;49.35;20.33;;;9.10;88.50;;;;;;5034847;28;20042;-79
2021/12/27 08:54:19;;;;;;;33.50;19.25;;;9.10;88.50;;;;;;5034435;28;20052;-79
2021/12/27 08:56:46;;;;;;;45.15;19.95;;;9.10;88.50;;;;;;5031898;28;20049;-79
2021/12/27 08:59:14;;;;;;;31.55;17.77;;;9.10;88.50;;;;;;5034641;28;20045;-79
2021/12/27 09:01:41;;;;;;;45.17;20.08;;;9.10;88.60;;;;;;5034541;28;20048;-79
2021/12/27 09:04:09;;;;;;;39.08;19.50;;;9.20;88.60;;;;;;5034042;28;20055;-79
2021/12/27 09:06:36;;;;;;;43.53;20.67;;;9.20;88.60;;;;;;5034515;28;20043;-79
2021/12/27 09:09:05;;;;;;;43.75;21.30;;;9.20;88.60;;;;;;5033538;28;20045;-79
2021/12/27 09:11:32;;;;;;;42.88;20.05;;;9.20;88.60;;;;;;5033729;28;20271;-79
2021/12/27 09:13:59;;;;;;;43.78;19.75;;;9.20;88.60;;;;;;5034276;28;20055;-79
2021/12/27 09:16:42;;;;;;;37.28;19.02;;;9.30;88.60;;;;;;5033265;28;20045;-80
2021/12/27 09:19:11;;;;;;;46.67;19.33;;;9.30;88.60;;;;;;5034073;28;20453;-80
2021/12/27 09:21:38;;;;;;;46.38;19.45;;;9.20;88.60;;;;;;5033728;28;20049;-79
2021/12/27 09:24:05;;;;;;;43.75;19.42;;;9.30;88.60;;;;;;5032619;28;20072;-79
2021/12/27 09:26:33;;;;;;;39.78;17.45;;;9.30;88.60;;;;;;5033396;28;20060;-79
2021/12/27 09:29:01;;;;;;;40.15;18.10;;;9.30;88.60;;;;;;5034091;28;20048;-80
2021/12/27 09:31:28;;;;;;;45.70;17.92;;;9.30;88.60;;;;;;5034132;28;20068;-80
2021/12/27 09:33:55;;;;;;;32.28;17.60;;;9.30;88.60;;;;;;5033708;28;20128;-79
2021/12/27 09:36:23;;;;;;;39.33;17.15;;;9.40;88.70;;;;;;5033269;28;20050;-80
2021/12/27 09:38:50;;;;;;;44.75;17.85;;;9.30;88.70;;;;;;5033123;28;20045;-80
2021/12/27 09:41:23;;;;;;;42.08;17.02;;;9.40;88.70;;;;;;5033427;28;20072;-79
2021/12/27 09:43:51;;;;;;;37.58;16.52;;;9.40;88.70;;;;;;5033791;28;20045;-80
2021/12/27 09:46:19;;;;;;;39.53;17.08;;;9.40;88.70;;;;;;5033772;28;20521;-79
2021/12/27 09:48:46;;;;;;;36.50;16.85;;;9.40;88.70;;;;;;5033488;28;20049;-79
2021/12/27 09:51:14;;;;;;;48.72;17.13;;;9.40;88.70;;;;;;5032781;28;20045;-79
2021/12/27 09:53:41;;;;;;;35.55;15.43;;;9.40;88.70;;;;;;5033354;28;20072;-80
2021/12/27 09:56:09;;;;;;;28.35;15.30;;;9.40;88.70;;;;;;5033131;28;20068;-79
2021/12/27 09:58:37;;;;;;;31.45;15.07;;;9.40;88.70;;;;;;5033633;28;20037;-79
2021/12/27 10:01:06;;;;;;;30.02;15.35;;;9.50;88.60;;;;;;5033642;28;20068;-80
2021/12/27 10:03:52;;;;;;;29.67;16.63;;;9.40;88.60;;;;;;5017451;28;20069;-80
2021/12/27 10:06:21;;;;;;;32.33;15.50;;;9.50;88.60;;;;;;5031697;28;20104;-80
2021/12/27 10:08:52;;;;;;;29.42;13.43;;;9.40;88.60;;;;;;5032707;28;20046;-80
2021/12/27 10:11:29;;;;;;;31.55;14.25;;;9.40;88.60;;;;;;5033029;28;20045;-82
2021/12/27 10:14:03;;;;;;;25.63;13.32;;;9.50;88.60;;;;;;5033382;28;20072;-81
2021/12/27 10:16:32;;;;;;;37.92;14.52;;;9.50;88.60;;;;;;5033438;28;20152;-80
2021/12/27 10:19:03;;;;;;;34.45;15.05;;;9.40;88.60;;;;;;5033199;28;20050;-80
2021/12/27 10:21:30;;;;;;;25.48;13.15;;;9.50;88.60;;;;;;5032822;28;20052;-80
2021/12/27 10:24:02;;;;;;;34.70;12.90;;;9.50;88.60;;;;;;5032382;28;20051;-81
2021/12/27 10:26:31;;;;;;;23.95;12.07;;;9.50;88.60;;;;;;5032678;28;20068;-80
2021/12/27 10:29:10;;;;;;;24.00;11.82;;;9.50;88.60;;;;;;5031961;28;20116;-80
2021/12/27 10:32:20;;;;;;;21.38;12.18;;;9.50;88.60;;;;;;5064570;28;20132;-80
2021/12/27 10:34:52;;;;;;;27.27;12.95;;;9.50;88.60;;;;;;5026325;28;20052;-80
2021/12/27 10:37:42;;;;;;;30.67;11.40;;;9.40;88.60;;;;;;5033067;28;20049;-79
2021/12/27 10:40:11;;;;;;;23.50;10.77;;;9.50;88.50;;;;;;5032508;28;20564;-80
2021/12/27 10:42:45;;;;;;;24.27;10.13;;;9.50;88.60;;;;;;5032947;28;20037;-80
2021/12/27 10:45:20;;;;;;;23.40;11.50;;;9.50;88.50;;;;;;5032725;28;20049;-79
2021/12/27 10:47:53;;;;;;;23.73;9.82;;;9.50;88.60;;;;;;5029787;28;20103;-79
2021/12/27 10:50:25;;;;;;;20.75;9.38;;;9.50;88.60;;;;;;5032453;28;20041;-79
2021/12/27 10:52:58;;;;;;;22.52;9.65;;;9.50;88.60;;;;;;5032869;28;20059;-79
2021/12/27 10:55:30;;;;;;;22.88;8.68;;;9.50;88.60;;;;;;5032313;28;20061;-79
2021/12/27 10:58:30;;;;;;;19.15;8.48;;;9.50;88.60;;;;;;5032862;28;20133;-80
2021/12/27 11:01:03;;;;;;;20.17;9.35;;;9.50;88.60;;;;;;5013079;28;20049;-79
2021/12/27 11:03:36;;;;;;;22.35;8.95;;;9.50;88.60;;;;;;5031949;28;20042;-80
2021/12/27 11:06:09;;;;;;;17.17;9.63;;;9.50;88.60;;;;;;5027939;28;20048;-80
2021/12/27 11:08:42;;;;;;;23.15;9.80;;;9.50;88.60;;;;;;5032618;28;20045;-79
2021/12/27 11:11:10;;;;;;;20.90;9.60;;;9.60;88.60;;;;;;5032234;28;20058;-80
2021/12/27 11:13:38;;;;;;;21.92;8.75;;;9.60;88.60;;;;;;5032577;28;20128;-80
2021/12/27 11:16:05;;;;;;;21.48;8.60;;;9.60;88.60;;;;;;5032630;28;20060;-80
2021/12/27 11:18:34;;;;;;;24.60;9.40;;;9.60;88.60;;;;;;5016334;28;20431;-79
2021/12/27 11:21:10;;;;;;;22.13;8.60;;;9.60;88.60;;;;;;5027345;28;20465;-81
2021/12/27 11:23:37;;;;;;;21.80;8.98;;;9.60;88.60;;;;;;5032720;28;20049;-80
2021/12/27 11:26:30;;;;;;;20.23;7.97;;;9.60;88.60;;;;;;5032285;28;20046;-79
2021/12/27 11:29:17;;;;;;;19.73;7.95;;;9.60;88.60;;;;;;5032305;28;20038;-79
2021/12/27 11:31:47;;;;;;;23.58;7.88;;;9.60;88.60;;;;;;5032147;28;20045;-79
2021/12/27 11:34:16;;;;;;;18.00;7.32;;;9.60;88.60;;;;;;5032212;28;20042;-80
2021/12/27 11:36:46;;;;;;;17.60;7.65;;;9.60;88.50;;;;;;5032443;28;20046;-79
2021/12/27 11:39:17;;;;;;;16.35;8.18;;;9.70;88.50;;;;;;5031409;28;20156;-82
2021/12/27 11:41:44;;;;;;;17.60;8.02;;;9.60;88.50;;;;;;5031302;28;20054;-81
2021/12/27 11:44:20;;;;;;;24.25;8.27;;;9.60;88.50;;;;;;5032091;28;20052;-82
2021/12/27 11:46:47;;;;;;;16.73;7.72;;;9.70;88.50;;;;;;5034228;28;20052;-80
2021/12/27 11:49:16;;;;;;;15.75;7.65;;;9.70;88.50;;;;;;5035899;28;20042;-80
2021/12/27 11:51:46;;;;;;;18.90;7.40;;;9.70;88.50;;;;;;5035943;28;20557;-80
2021/12/27 11:54:31;;;;;;;14.80;7.80;;;9.70;88.50;;;;;;5034873;28;20064;-80
2021/12/27 11:56:59;;;;;;;15.55;7.28;;;9.70;88.50;;;;;;5034606;28;20518;-80
2021/12/27 11:59:36;;;;;;;16.58;7.53;;;9.70;88.50;;;;;;5035832;28;20084;-80
2021/12/27 12:02:24;;;;;;;16.65;7.13;;;9.70;88.50;;;;;;5034755;28;20055;-80
2021/12/27 12:04:55;;;;;;;20.13;7.57;;;9.70;88.40;;;;;;5034336;28;20045;-80
2021/12/27 12:07:34;;;;;;;16.58;8.15;;;9.70;88.50;;;;;;5035630;28;20045;-80
2021/12/27 12:10:05;;;;;;;17.52;7.05;;;9.70;88.50;;;;;;5035218;28;20041;-79
2021/12/27 12:12:33;;;;;;;16.70;7.15;;;9.70;88.50;;;;;;5035525;28;20095;-80
2021/12/27 12:15:08;;;;;;;14.02;6.68;;;9.70;88.50;;;;;;5031110;28;20123;-81
2021/12/27 12:17:48;;;;;;;10.77;6.00;;;9.70;88.50;;;;;;5035201;28;20518;-79
2021/12/27 12:20:34;;;;;;;14.43;6.75;;;9.70;88.40;;;;;;5035478;28;20045;-80
2021/12/27 12:23:07;;;;;;;18.20;6.22;;;9.70;88.40;;;;;;5035482;28;20048;-80
2021/12/27 12:25:35;;;;;;;15.13;6.68;;;9.70;88.40;;;;;;5034940;28;20068;-79
2021/12/27 12:28:09;;;;;;;16.20;5.70;;;9.70;88.40;;;;;;5035301;28;20520;-80
2021/12/27 12:30:39;;;;;;;8.38;5.60;;;9.70;88.40;;;;;;5019541;28;20051;-79
2021/12/27 12:33:16;;;;;;;12.20;5.72;;;9.70;88.40;;;;;;5033986;28;20056;-80
2021/12/27 12:35:55;;;;;;;8.93;5.90;;;9.70;88.40;;;;;;5034948;28;20049;-80
2021/12/27 12:38:28;;;;;;;10.93;5.50;;;9.70;88.40;;;;;;5034817;28;20129;-81
2021/12/27 12:41:17;;;;;;;12.02;5.75;;;9.70;88.30;;;;;;5034987;28;20399;-80
2021/12/27 12:43:57;;;;;;;9.68;5.40;;;9.70;88.30;;;;;;5035042;28;20053;-80
2021/12/27 12:46:40;;;;;;;11.73;5.40;;;9.70;88.30;;;;;;5034246;28;20513;-80
2021/12/27 12:49:14;;;;;;;8.32;5.07;;;9.70;88.30;;;;;;5034949;28;20049;-79
2021/12/27 12:51:50;;;;;;;14.45;4.72;;;9.70;88.30;;;;;;5020055;28;20048;-79
2021/12/27 12:54:23;;;;;;;10.00;4.80;;;9.70;88.30;;;;;;5034433;28;20059;-80
2021/12/27 12:57:03;;;;;;;6.32;3.85;;;9.70;88.30;;;;;;5031546;28;20072;-80